Time;durP1;ratioP1;P1;durP2;ratioP2;P2;SDS_P1;SDS_P2;PMS_P1;PMS_P2;Temp;Humidity;BMP_temperature;BMP_pressure;BME280_temperature;BME280_humidity;BME280_pressure;Samples;Min_cycle;Max_cycle;Signal;HPM_P1;HPM_P2
2021/09/12 00:01:10;;;;;;;0.40;0.30;;;;;;;16.07;100.00;100504.38;5020887;28;20490;-56
2021/09/12 00:03:37;;;;;;;0.40;0.20;;;;;;;15.94;100.00;100504.06;5053432;28;20485;-55
2021/09/12 00:06:04;;;;;;;0.40;0.20;;;;;;;16.17;100.00;100508.34;5046557;28;20452;-55
2021/09/12 00:08:31;;;;;;;0.40;0.20;;;;;;;16.05;100.00;100503.56;5044338;28;20487;-55
2021/09/12 00:10:59;;;;;;;0.40;0.20;;;;;;;16.08;100.00;100499.88;5050934;28;20517;-55
2021/09/12 00:13:26;;;;;;;0.50;0.30;;;;;;;16.05;100.00;100503.56;5044703;28;21049;-55
2021/09/12 00:15:53;;;;;;;0.40;0.20;;;;;;;16.15;100.00;100503.97;5054035;28;20516;-55
2021/09/12 00:18:20;;;;;;;0.40;0.20;;;;;;;15.85;100.00;100509.88;5053663;28;20483;-55
2021/09/12 00:20:46;;;;;;;0.40;0.20;;;;;;;15.86;100.00;100508.91;5040185;28;20446;-56
2021/09/12 00:23:14;;;;;;;0.40;0.30;;;;;;;15.84;100.00;100509.94;5046348;28;20512;-56
2021/09/12 00:25:41;;;;;;;0.40;0.30;;;;;;;15.51;100.00;100501.63;5053176;28;20447;-55
2021/09/12 00:28:08;;;;;;;0.40;0.30;;;;;;;15.77;100.00;100505.81;5053390;28;20486;-56
2021/09/12 00:30:35;;;;;;;1.63;0.77;;;;;;;15.78;100.00;100492.34;5053885;28;20493;-55
2021/09/12 00:33:03;;;;;;;0.40;0.20;;;;;;;15.84;100.00;100486.69;5050771;28;20454;-56
2021/09/12 00:35:29;;;;;;;0.40;0.20;;;;;;;15.73;100.00;100490.81;5058954;28;20829;-56
2021/09/12 00:37:56;;;;;;;0.40;0.20;;;;;;;15.70;100.00;100491.81;5058310;28;20450;-56
2021/09/12 00:40:24;;;;;;;0.40;0.27;;;;;;;15.86;100.00;100500.88;5058622;28;20943;-56
2021/09/12 00:42:51;;;;;;;0.43;0.37;;;;;;;15.74;100.00;100492.53;5055518;28;20458;-55
2021/09/12 00:45:20;;;;;;;0.40;0.30;;;;;;;15.70;100.00;100498.03;5056511;28;20478;-55
2021/09/12 00:47:47;;;;;;;0.70;0.70;;;;;;;15.69;100.00;100498.13;5033370;28;20462;-55
2021/09/12 00:50:16;;;;;;;0.40;0.40;;;;;;;15.79;100.00;100499.44;5056817;28;20485;-55
2021/09/12 00:52:47;;;;;;;0.40;0.20;;;;;;;15.74;100.00;100488.03;5050890;28;20454;-55
2021/09/12 00:55:17;;;;;;;2.73;0.70;;;;;;;15.76;100.00;100494.22;5031425;28;20554;-55
2021/09/12 00:57:46;;;;;;;0.40;0.20;;;;;;;15.82;100.00;100493.94;5039746;28;20454;-55
2021/09/12 01:00:13;;;;;;;0.40;0.20;;;;;;;15.75;100.00;100499.63;5048057;28;20451;-55
2021/09/12 01:02:42;;;;;;;0.40;0.20;;;;;;;15.78;100.00;100495.03;5052808;28;20482;-56
2021/09/12 01:05:10;;;;;;;0.40;0.20;;;;;;;15.70;100.00;100499.84;5058014;28;20911;-55
2021/09/12 01:07:40;;;;;;;9.90;1.07;;;;;;;15.73;100.00;100497.03;5057236;28;20447;-56
2021/09/12 01:10:08;;;;;;;0.50;0.30;;;;;;;15.72;100.00;100492.59;5057764;28;20443;-55
2021/09/12 01:12:37;;;;;;;0.40;0.30;;;;;;;15.61;100.00;100498.47;5054882;28;20450;-55
2021/09/12 01:15:06;;;;;;;0.40;0.20;;;;;;;15.65;100.00;100501.91;5057016;28;20479;-56
2021/09/12 01:17:33;;;;;;;0.50;0.50;;;;;;;15.72;100.00;100500.66;5039794;28;21010;-55
2021/09/12 01:20:00;;;;;;;0.40;0.20;;;;;;;15.58;100.00;100501.25;5057554;28;20465;-56
2021/09/12 01:22:29;;;;;;;0.40;0.30;;;;;;;15.66;100.00;100500.94;5052021;28;20513;-55
2021/09/12 01:24:56;;;;;;;0.40;0.20;;;;;;;15.68;100.00;100491.88;5057156;28;20474;-56
2021/09/12 01:27:23;;;;;;;0.40;0.20;;;;;;;15.89;100.00;100494.50;5057196;28;20860;-55
2021/09/12 01:29:51;;;;;;;0.40;0.20;;;;;;;15.69;100.00;100490.09;5055641;28;20518;-55
2021/09/12 01:32:23;;;;;;;0.40;0.20;;;;;;;15.61;100.00;100485.06;5045517;28;20462;-55
2021/09/12 01:34:50;;;;;;;0.40;0.20;;;;;;;15.57;100.00;100487.94;5056923;28;20889;-56
2021/09/12 01:37:17;;;;;;;0.50;0.40;;;;;;;15.55;100.00;100485.31;5045490;28;20481;-55
2021/09/12 01:39:44;;;;;;;0.50;0.47;;;;;;;15.48;100.00;100480.31;5051882;28;20992;-55
2021/09/12 01:42:11;;;;;;;0.40;0.20;;;;;;;15.56;100.00;100478.16;5045818;28;20509;-55
2021/09/12 01:44:46;;;;;;;0.50;0.50;;;;;;;15.60;100.00;100483.31;5055227;28;20505;-55
2021/09/12 01:47:14;;;;;;;0.50;0.40;;;;;;;15.47;100.00;100479.44;5056147;28;20489;-56
2021/09/12 01:49:41;;;;;;;0.40;0.20;;;;;;;15.45;100.00;100475.97;5053906;28;20541;-55
2021/09/12 01:52:13;;;;;;;0.40;0.20;;;;;;;15.42;100.00;100478.78;5038503;28;20853;-56
2021/09/12 01:54:40;;;;;;;0.40;0.20;;;;;;;15.31;100.00;100484.63;5056828;28;20471;-56
2021/09/12 01:57:08;;;;;;;0.50;0.30;;;;;;;15.56;100.00;100472.78;5056801;28;20458;-55
2021/09/12 01:59:35;;;;;;;0.40;0.20;;;;;;;15.88;100.00;100463.28;5041722;28;21006;-56
2021/09/12 02:02:03;;;;;;;0.40;0.30;;;;;;;15.50;100.00;100468.59;5047001;28;20505;-59
2021/09/12 02:04:30;;;;;;;0.40;0.20;;;;;;;15.52;100.00;100466.72;5056168;28;20490;-56
2021/09/12 02:06:57;;;;;;;0.40;0.30;;;;;;;15.41;100.00;100466.34;5056098;28;20936;-56
2021/09/12 02:09:26;;;;;;;0.40;0.20;;;;;;;15.39;100.00;100465.53;5046865;28;20521;-55
2021/09/12 02:11:54;;;;;;;0.40;0.30;;;;;;;15.42;100.00;100478.78;5056690;28;20490;-55
2021/09/12 02:14:21;;;;;;;0.40;0.20;;;;;;;15.50;100.00;100467.72;5056262;28;20553;-56
2021/09/12 02:16:49;;;;;;;0.60;0.50;;;;;;;15.38;100.00;100475.38;5056273;28;20447;-55
2021/09/12 02:19:16;;;;;;;0.50;0.30;;;;;;;15.41;100.00;100475.25;5049035;28;20525;-55
2021/09/12 02:21:43;;;;;;;0.40;0.20;;;;;;;15.51;100.00;100466.78;5056271;28;20462;-55
2021/09/12 02:24:11;;;;;;;0.40;0.20;;;;;;;15.44;100.00;100470.69;5056587;28;20474;-55
2021/09/12 02:26:37;;;;;;;0.40;0.20;;;;;;;15.39;100.00;100476.25;5044362;28;20506;-55
2021/09/12 02:29:04;;;;;;;0.40;0.30;;;;;;;15.36;100.00;100469.22;5056080;28;20910;-55
2021/09/12 02:31:31;;;;;;;0.40;0.20;;;;;;;15.31;100.00;100467.69;5045215;28;20459;-55
2021/09/12 02:33:59;;;;;;;0.40;0.30;;;;;;;15.30;100.00;100479.34;5055750;28;20830;-55
2021/09/12 02:36:26;;;;;;;0.40;0.20;;;;;;;15.33;100.00;100471.16;5045973;28;20459;-55
2021/09/12 02:38:53;;;;;;;0.97;0.97;;;;;;;15.28;100.00;100460.66;5030878;28;20490;-56
2021/09/12 02:41:20;;;;;;;0.40;0.30;;;;;;;15.53;100.00;100471.13;5055680;28;20467;-55
2021/09/12 02:43:47;;;;;;;0.40;0.37;;;;;;;15.40;100.00;100475.31;5056426;28;20459;-55
2021/09/12 02:46:14;;;;;;;0.40;0.20;;;;;;;15.35;100.00;100475.53;5048097;28;20809;-56
2021/09/12 02:48:41;;;;;;;0.40;0.20;;;;;;;15.29;100.00;100472.25;5056140;28;21060;-55
2021/09/12 02:51:08;;;;;;;0.50;0.40;;;;;;;15.29;100.00;100472.25;5056478;28;20447;-56
2021/09/12 02:53:35;;;;;;;0.40;0.20;;;;;;;14.92;100.00;100463.16;5055243;28;20544;-55
2021/09/12 02:56:02;;;;;;;0.40;0.20;;;;;;;14.82;100.00;100476.09;5047500;28;20491;-55
2021/09/12 02:58:29;;;;;;;0.50;0.30;;;;;;;14.58;100.00;100465.56;5045579;28;20508;-55
2021/09/12 03:00:56;;;;;;;0.60;0.40;;;;;;;14.79;100.00;100469.97;5035036;28;20487;-55
2021/09/12 03:03:23;;;;;;;0.40;0.30;;;;;;;14.89;100.00;100467.78;5052937;28;20943;-56
2021/09/12 03:05:50;;;;;;;0.43;0.30;;;;;;;14.95;100.00;100472.88;5049783;28;20451;-55
2021/09/12 03:08:17;;;;;;;0.40;0.20;;;;;;;14.98;100.00;100468.25;5053146;28;20451;-55
2021/09/12 03:10:44;;;;;;;0.40;0.20;;;;;;;14.87;100.00;100469.66;5053145;28;20446;-55
2021/09/12 03:13:11;;;;;;;0.40;0.20;;;;;;;14.60;100.00;100461.00;5053233;28;20517;-55
2021/09/12 03:15:38;;;;;;;0.50;0.40;;;;;;;14.74;100.00;100463.97;5032474;28;20447;-55
2021/09/12 03:18:05;;;;;;;0.40;0.20;;;;;;;14.84;100.00;100464.44;5053084;28;20465;-55
2021/09/12 03:20:33;;;;;;;0.40;0.20;;;;;;;15.00;100.00;100469.06;5051907;28;20816;-55
2021/09/12 03:23:00;;;;;;;0.40;0.20;;;;;;;15.06;100.00;100466.09;5053002;28;20447;-55
2021/09/12 03:25:27;;;;;;;0.40;0.20;;;;;;;14.92;100.00;100464.97;5050310;28;20505;-55
2021/09/12 03:27:54;;;;;;;0.60;0.60;;;;;;;14.58;100.00;100462.88;5042458;28;20495;-55
2021/09/12 03:30:21;;;;;;;0.40;0.20;;;;;;;14.38;100.00;100459.19;5052938;28;20983;-55
2021/09/12 03:32:48;;;;;;;0.40;0.20;;;;;;;14.41;100.00;100452.84;5053295;28;20478;-55
2021/09/12 03:35:16;;;;;;;0.40;0.20;;;;;;;14.44;100.00;100445.59;5052791;28;20976;-55
2021/09/12 03:37:43;;;;;;;0.40;0.20;;;;;;;14.40;100.00;100446.63;5045996;28;20486;-55
2021/09/12 03:40:10;;;;;;;0.40;0.20;;;;;;;14.21;100.00;100443.84;5049458;28;20442;-55
2021/09/12 03:42:38;;;;;;;0.40;0.30;;;;;;;14.07;100.00;100442.66;5052837;28;20486;-55
2021/09/12 03:45:05;;;;;;;0.40;0.20;;;;;;;14.20;100.00;100442.09;5052473;28;20498;-55
2021/09/12 03:47:32;;;;;;;1.20;1.13;;;;;;;14.23;100.00;100446.44;5052384;28;20447;-55
2021/09/12 03:49:59;;;;;;;0.50;0.37;;;;;;;14.16;100.00;100444.97;5052163;28;20486;-55
2021/09/12 03:52:26;;;;;;;0.40;0.30;;;;;;;14.26;100.00;100446.34;5049049;28;20573;-55
2021/09/12 03:54:53;;;;;;;0.40;0.20;;;;;;;14.03;100.00;100452.63;5051950;28;20582;-55
2021/09/12 03:57:23;;;;;;;0.40;0.20;;;;;;;14.19;100.00;100451.06;5052484;28;20451;-55
2021/09/12 03:59:53;;;;;;;0.40;0.20;;;;;;;14.03;100.00;100449.94;5045651;28;20448;-55
2021/09/12 04:02:20;;;;;;;0.40;0.20;;;;;;;13.80;100.00;100455.31;5044647;28;20450;-55
2021/09/12 04:04:47;;;;;;;0.70;0.67;;;;;;;13.91;100.00;100456.66;5046721;28;20479;-55
2021/09/12 04:07:14;;;;;;;0.40;0.20;;;;;;;13.71;100.00;100453.03;5015038;28;20458;-55
2021/09/12 04:09:41;;;;;;;0.40;0.30;;;;;;;13.78;100.00;100459.84;5052221;28;20510;-55
2021/09/12 04:12:09;;;;;;;0.40;0.30;;;;;;;13.76;100.00;100461.72;5049787;28;20443;-55
2021/09/12 04:14:36;;;;;;;0.40;0.20;;;;;;;13.76;100.00;100454.56;5030183;28;20502;-55
2021/09/12 04:17:04;;;;;;;0.60;0.57;;;;;;;13.70;100.00;100451.25;5046988;28;20459;-55
2021/09/12 04:19:31;;;;;;;0.40;0.20;;;;;;;13.60;100.00;100442.75;5056809;28;20508;-55
2021/09/12 04:21:58;;;;;;;0.40;0.40;;;;;;;13.62;100.00;100448.91;5056028;28;20451;-55
2021/09/12 04:24:25;;;;;;;0.40;0.20;;;;;;;13.52;100.00;100443.03;5037363;28;20478;-55
2021/09/12 04:26:52;;;;;;;0.40;0.20;;;;;;;13.66;100.00;100450.50;5049855;28;20495;-55
2021/09/12 04:29:19;;;;;;;0.40;0.20;;;;;;;13.51;100.00;100456.44;5055933;28;20486;-55
2021/09/12 04:31:47;;;;;;;0.40;0.20;;;;;;;13.47;100.00;100452.16;5038158;28;20482;-55
2021/09/12 04:34:14;;;;;;;0.40;0.20;;;;;;;13.23;100.00;100461.94;5055975;28;20467;-55
2021/09/12 04:36:41;;;;;;;0.40;0.30;;;;;;;13.31;100.00;100459.88;5042421;28;20952;-55
2021/09/12 04:39:08;;;;;;;0.40;0.30;;;;;;;13.19;100.00;100458.53;5056058;28;20485;-55
2021/09/12 04:41:35;;;;;;;0.40;0.30;;;;;;;13.15;100.00;100458.63;5056391;28;20447;-55
2021/09/12 04:44:02;;;;;;;0.40;0.20;;;;;;;13.24;100.00;100461.00;5056732;28;21006;-55
2021/09/12 04:46:29;;;;;;;0.40;0.20;;;;;;;13.17;100.00;100456.81;5055519;28;20450;-55
2021/09/12 04:48:56;;;;;;;0.40;0.20;;;;;;;13.20;100.00;100462.94;5045808;28;20491;-55
2021/09/12 04:51:24;;;;;;;0.40;0.20;;;;;;;13.17;100.00;100467.50;5056421;28;20434;-55
2021/09/12 04:53:51;;;;;;;0.40;0.20;;;;;;;13.09;100.00;100467.75;5056295;28;20520;-55
2021/09/12 04:56:18;;;;;;;0.40;0.20;;;;;;;13.06;100.00;100465.19;5042686;28;20491;-55
2021/09/12 04:58:45;;;;;;;0.40;0.20;;;;;;;13.04;100.00;100472.41;5043105;28;20953;-55
2021/09/12 05:01:12;;;;;;;0.53;0.50;;;;;;;12.97;100.00;100470.84;5037082;28;20451;-55
2021/09/12 05:03:41;;;;;;;0.40;0.20;;;;;;;12.92;100.00;100465.69;5039374;22;20471;-57
2021/09/12 05:06:09;;;;;;;0.40;0.20;;;;;;;13.00;100.00;100474.28;5052173;28;20487;-57
2021/09/12 05:08:36;;;;;;;0.60;0.60;;;;;;;13.11;100.00;100479.25;5051744;28;20509;-57
2021/09/12 05:11:03;;;;;;;0.40;0.20;;;;;;;12.93;100.00;100477.25;5036543;28;20556;-57
2021/09/12 05:13:31;;;;;;;0.40;0.20;;;;;;;12.89;100.00;100480.94;5054732;28;20458;-57
2021/09/12 05:15:58;;;;;;;0.63;0.63;;;;;;;12.88;100.00;100485.38;5037958;28;20509;-57
2021/09/12 05:18:25;;;;;;;0.50;0.30;;;;;;;12.88;100.00;100485.38;5045334;28;20512;-57
2021/09/12 05:20:51;;;;;;;0.50;0.40;;;;;;;12.82;100.00;100482.06;5035060;28;20491;-57
2021/09/12 05:23:21;;;;;;;0.40;0.20;;;;;;;12.95;100.00;100480.72;5040402;28;20597;-57
2021/09/12 05:25:50;;;;;;;0.40;0.20;;;;;;;13.06;100.00;100483.88;5043053;28;20452;-57
2021/09/12 05:28:18;;;;;;;0.40;0.20;;;;;;;13.09;100.00;100490.91;5036530;28;20940;-57
2021/09/12 05:30:49;;;;;;;0.40;0.30;;;;;;;13.05;100.00;100487.47;5036282;28;20519;-57
2021/09/12 05:33:16;;;;;;;0.40;0.20;;;;;;;13.14;100.00;100489.78;5043576;28;20555;-57
2021/09/12 05:35:43;;;;;;;0.40;0.30;;;;;;;13.13;100.00;100492.53;5034955;28;20492;-58
2021/09/12 05:38:10;;;;;;;0.40;0.20;;;;;;;13.23;100.00;100491.31;5042608;28;20859;-57
2021/09/12 05:40:37;;;;;;;0.40;0.20;;;;;;;13.34;100.00;100497.13;5042268;28;20470;-57
2021/09/12 05:43:04;;;;;;;1.90;1.73;;;;;;;13.60;100.00;100491.69;5046340;28;20986;-57
2021/09/12 05:45:31;;;;;;;0.40;0.20;;;;;;;13.52;100.00;100490.22;5046777;28;20846;-57
2021/09/12 05:47:58;;;;;;;0.40;0.20;;;;;;;13.44;100.00;100497.69;5036681;28;20510;-57
2021/09/12 05:50:25;;;;;;;0.40;0.30;;;;;;;13.36;100.00;100495.28;5038084;28;20488;-57
2021/09/12 05:52:52;;;;;;;0.40;0.30;;;;;;;13.38;100.00;100496.09;5035522;28;20490;-58
2021/09/12 05:55:19;;;;;;;0.40;0.30;;;;;;;13.31;100.00;100491.91;5043398;28;20976;-57
2021/09/12 05:57:46;;;;;;;0.40;0.20;;;;;;;13.45;100.00;100494.06;5046522;28;20486;-58
2021/09/12 06:00:13;;;;;;;1.03;0.70;;;;;;;13.51;100.00;100497.38;5035636;28;20451;-57
2021/09/12 06:02:40;;;;;;;0.40;0.20;;;;;;;13.50;100.00;100502.78;5042666;28;20906;-57
2021/09/12 06:05:08;;;;;;;0.40;0.20;;;;;;;13.46;100.00;100498.50;5040623;28;20926;-57
2021/09/12 06:07:35;;;;;;;0.40;0.20;;;;;;;13.44;100.00;100493.22;5040129;28;20452;-57
2021/09/12 06:10:02;;;;;;;0.40;0.20;;;;;;;13.54;100.00;100504.41;5039058;28;20537;-57
2021/09/12 06:12:29;;;;;;;0.40;0.20;;;;;;;13.72;100.00;100509.06;5039495;28;20797;-57
2021/09/12 06:14:55;;;;;;;0.50;0.50;;;;;;;13.83;100.00;100508.63;5044118;28;20837;-58
2021/09/12 06:17:22;;;;;;;0.40;0.20;;;;;;;13.68;100.00;100506.56;5017563;28;20491;-56
2021/09/12 06:19:49;;;;;;;0.40;0.20;;;;;;;13.64;100.00;100508.47;5034100;28;20448;-58
2021/09/12 06:22:16;;;;;;;0.40;0.20;;;;;;;13.64;100.00;100503.13;5030641;28;20476;-57
2021/09/12 06:24:44;;;;;;;0.40;0.30;;;;;;;13.68;100.00;100510.09;5033452;28;20988;-57
2021/09/12 06:27:11;;;;;;;0.40;0.30;;;;;;;13.79;100.00;100504.34;5032463;28;20448;-56
2021/09/12 06:29:38;;;;;;;0.40;0.20;;;;;;;13.89;100.00;100513.75;5036836;28;20534;-56
2021/09/12 06:32:05;;;;;;;0.40;0.20;;;;;;;13.93;100.00;100510.03;5033651;28;20510;-56
2021/09/12 06:34:32;;;;;;;0.40;0.20;;;;;;;14.20;100.00;100510.75;5033822;28;20514;-56
2021/09/12 06:36:59;;;;;;;0.40;0.20;;;;;;;14.59;100.00;100510.97;5033794;28;20538;-54
2021/09/12 06:39:26;;;;;;;0.40;0.20;;;;;;;14.66;100.00;100520.47;5033793;28;20443;-51
2021/09/12 06:41:53;;;;;;;1.17;0.97;;;;;;;15.46;100.00;100520.56;5033448;28;20831;-55
2021/09/12 06:44:20;;;;;;;0.50;0.30;;;;;;;15.09;100.00;100511.50;5033460;28;21053;-54
2021/09/12 06:46:47;;;;;;;0.40;0.20;;;;;;;15.37;100.00;100515.63;5033344;28;20447;-55
2021/09/12 06:49:14;;;;;;;0.40;0.20;;;;;;;15.75;100.00;100518.41;5033326;28;21010;-55
2021/09/12 06:51:41;;;;;;;0.40;0.20;;;;;;;15.44;100.00;100517.09;5033210;28;20462;-55
2021/09/12 06:54:08;;;;;;;0.53;0.47;;;;;;;15.27;100.00;100522.34;5033160;28;20501;-55
2021/09/12 06:56:35;;;;;;;0.40;0.20;;;;;;;15.43;100.00;100511.81;5033408;28;20482;-55
2021/09/12 06:59:02;;;;;;;0.40;0.20;;;;;;;15.43;100.00;100512.66;5033260;28;21006;-54
2021/09/12 07:01:29;;;;;;;0.50;0.33;;;;;;;15.43;100.00;100517.16;5046468;28;20963;-55
2021/09/12 07:03:56;;;;;;;0.40;0.20;;;;;;;15.68;100.00;100512.47;5033053;28;20483;-54
2021/09/12 07:06:23;;;;;;;0.40;0.20;;;;;;;15.53;100.00;100508.66;5033015;28;20896;-55
2021/09/12 07:08:52;;;;;;;1.67;1.57;;;;;;;15.76;100.00;100514.78;5032961;28;20448;-55
2021/09/12 07:11:19;;;;;;;0.50;0.50;;;;;;;15.53;100.00;100514.00;5019926;28;20919;-55
2021/09/12 07:13:46;;;;;;;0.50;0.40;;;;;;;15.61;100.00;100517.22;5015433;28;20518;-55
2021/09/12 07:16:13;;;;;;;0.93;0.90;;;;;;;15.65;100.00;100512.63;5033140;28;20483;-55
2021/09/12 07:18:40;;;;;;;0.40;0.20;;;;;;;15.87;100.00;100516.00;5032806;28;20451;-55
2021/09/12 07:21:06;;;;;;;0.50;0.50;;;;;;;15.86;100.00;100525.00;5032877;28;20479;-55
2021/09/12 07:23:33;;;;;;;0.40;0.20;;;;;;;16.06;100.00;100512.50;5032556;28;20478;-55
2021/09/12 07:26:00;;;;;;;0.50;0.40;;;;;;;16.03;100.00;100518.84;5032783;28;20509;-55
2021/09/12 07:28:32;;;;;;;0.40;0.20;;;;;;;16.20;100.00;100526.13;5032717;28;20448;-55
2021/09/12 07:30:59;;;;;;;0.40;0.20;;;;;;;16.48;100.00;100526.50;5032528;28;20546;-54
2021/09/12 07:33:26;;;;;;;0.40;0.20;;;;;;;16.46;100.00;100514.97;5032467;28;20478;-55
2021/09/12 07:35:53;;;;;;;0.40;0.20;;;;;;;16.01;100.00;100526.09;5032503;28;20482;-55
2021/09/12 07:38:20;;;;;;;0.40;0.20;;;;;;;16.23;100.00;100521.47;5014932;28;20452;-54
2021/09/12 07:40:47;;;;;;;0.40;0.20;;;;;;;16.68;100.00;100514.81;5032495;28;20480;-55
2021/09/12 07:43:13;;;;;;;1.40;0.50;;;;;;;16.46;100.00;100511.44;5031706;28;20944;-54
2021/09/12 07:45:40;;;;;;;0.40;0.20;;;;;;;16.43;100.00;100511.56;5032340;28;20976;-55
2021/09/12 07:48:07;;;;;;;0.40;0.20;;;;;;;16.42;100.00;100517.88;5032248;28;20870;-55
2021/09/12 07:50:34;;;;;;;0.60;0.53;;;;;;;16.81;100.00;100518.59;5032369;28;20487;-55
2021/09/12 07:53:02;;;;;;;0.40;0.20;;;;;;;17.03;100.00;100522.91;5032408;28;20494;-55
2021/09/12 07:55:29;;;;;;;0.40;0.20;;;;;;;17.10;100.00;100521.63;5032346;28;20467;-55
2021/09/12 07:57:56;;;;;;;0.40;0.20;;;;;;;17.54;100.00;100519.25;5032291;28;20460;-55
2021/09/12 08:00:23;;;;;;;0.40;0.20;;;;;;;17.75;100.00;100512.78;5042287;28;20501;-55
2021/09/12 08:02:50;;;;;;;0.40;0.20;;;;;;;17.77;100.00;100515.38;5035240;28;20505;-55
2021/09/12 08:05:18;;;;;;;0.53;0.53;;;;;;;17.73;100.00;100513.81;5032212;28;20487;-55
2021/09/12 08:07:45;;;;;;;0.40;0.20;;;;;;;18.01;100.00;100514.03;5032444;28;20451;-55
2021/09/12 08:10:12;;;;;;;0.40;0.20;;;;;;;17.96;100.00;100508.06;5030804;28;20519;-55
2021/09/12 08:12:39;;;;;;;0.40;0.20;;;;;;;18.61;98.86;100510.59;5032040;28;20452;-55
2021/09/12 08:15:06;;;;;;;0.40;0.20;;;;;;;18.17;98.46;100511.34;5032210;28;20506;-56
2021/09/12 08:17:33;;;;;;;0.40;0.20;;;;;;;18.71;98.31;100513.69;5032159;28;20518;-55
2021/09/12 08:20:00;;;;;;;0.40;0.30;;;;;;;18.46;97.77;100517.75;5032265;28;20506;-55
2021/09/12 08:22:27;;;;;;;0.40;0.20;;;;;;;18.49;98.15;100516.69;5032153;28;20549;-55
2021/09/12 08:24:54;;;;;;;0.40;0.30;;;;;;;18.85;97.18;100516.44;5032007;28;20590;-56
2021/09/12 08:27:21;;;;;;;0.40;0.27;;;;;;;18.71;97.58;100516.38;5032013;28;20983;-55
2021/09/12 08:29:48;;;;;;;0.80;0.80;;;;;;;18.74;96.53;100519.75;5032006;28;20448;-55
2021/09/12 08:32:15;;;;;;;0.40;0.30;;;;;;;19.17;95.96;100522.56;5031800;28;20502;-55
2021/09/12 08:34:42;;;;;;;0.40;0.20;;;;;;;19.08;96.16;100534.78;5030628;28;20518;-55
2021/09/12 08:37:09;;;;;;;1.53;1.53;;;;;;;19.01;96.05;100537.94;5031767;28;20485;-55
2021/09/12 08:39:36;;;;;;;3.60;0.50;;;;;;;19.13;96.61;100524.59;5031918;28;20498;-55
2021/09/12 08:42:03;;;;;;;0.40;0.20;;;;;;;19.11;97.78;100531.03;5032221;28;20448;-55
2021/09/12 08:44:30;;;;;;;0.40;0.23;;;;;;;19.38;95.66;100515.03;5031802;28;20468;-56
2021/09/12 08:46:57;;;;;;;0.40;0.20;;;;;;;19.46;95.33;100528.88;5031837;28;20483;-56
2021/09/12 08:49:24;;;;;;;0.40;0.20;;;;;;;19.97;93.25;100529.31;5014517;28;20501;-55
2021/09/12 08:51:51;;;;;;;1.07;1.07;;;;;;;19.75;93.71;100527.13;5031604;28;21062;-55
2021/09/12 08:54:18;;;;;;;1.03;0.60;;;;;;;20.46;92.39;100521.66;5033326;28;20506;-55
2021/09/12 08:56:45;;;;;;;0.40;0.20;;;;;;;20.36;91.38;100524.06;5035568;28;20483;-55
2021/09/12 08:59:33;;;;;;;0.40;0.30;;;;;;;20.39;91.49;100520.28;5035549;28;20452;-55
2021/09/12 09:02:02;;;;;;;0.40;0.20;;;;;;;20.53;89.71;100514.88;5045551;28;20415;-55
2021/09/12 09:04:32;;;;;;;0.40;0.20;;;;;;;20.54;90.08;100511.19;5017517;28;20891;-56
2021/09/12 09:07:11;;;;;;;1.23;0.60;;;;;;;20.73;87.97;100518.97;5035357;28;20937;-55
2021/09/12 09:09:42;;;;;;;0.40;0.20;;;;;;;20.50;89.71;100511.50;5035024;28;20451;-55
2021/09/12 09:12:24;;;;;;;0.50;0.40;;;;;;;20.75;89.03;100510.75;5035295;28;20493;-56
2021/09/12 09:15:08;;;;;;;0.40;0.20;;;;;;;21.07;86.30;100505.84;5035077;28;20891;-55
2021/09/12 09:17:38;;;;;;;0.40;0.30;;;;;;;21.43;86.56;100506.03;5035074;28;20486;-56
2021/09/12 09:20:07;;;;;;;0.50;0.40;;;;;;;21.16;87.15;100508.78;5035179;28;20422;-55
2021/09/12 09:22:45;;;;;;;0.40;0.20;;;;;;;21.41;84.69;100515.25;5035218;28;20498;-56
2021/09/12 09:25:20;;;;;;;0.40;0.30;;;;;;;21.67;84.92;100508.00;5034775;28;20525;-54
2021/09/12 09:28:03;;;;;;;0.40;0.20;;;;;;;21.82;83.61;100510.47;5035043;28;20860;-56
2021/09/12 09:30:53;;;;;;;0.40;0.20;;;;;;;21.69;82.02;100511.44;5035524;28;20494;-55
2021/09/12 09:33:25;;;;;;;0.40;0.30;;;;;;;21.49;82.93;100507.44;5034651;28;20444;-55
2021/09/12 09:36:07;;;;;;;0.40;0.30;;;;;;;21.70;81.67;100505.91;5034821;28;20430;-56
2021/09/12 09:38:37;;;;;;;0.40;0.30;;;;;;;21.82;80.32;100506.88;5035160;28;20794;-55
2021/09/12 09:41:17;;;;;;;0.40;0.20;;;;;;;21.98;80.27;100498.53;5034716;28;20494;-55
2021/09/12 09:43:53;;;;;;;0.40;0.30;;;;;;;22.20;79.98;100509.53;5034524;28;20525;-55
2021/09/12 09:46:37;;;;;;;0.40;0.30;;;;;;;22.37;76.33;100494.75;5034610;28;20484;-56
2021/09/12 09:49:27;;;;;;;0.40;0.30;;;;;;;22.13;75.76;100498.28;5034344;28;20842;-55
2021/09/12 09:51:57;;;;;;;0.40;0.23;;;;;;;22.59;71.76;100489.44;5022829;28;20466;-55
2021/09/12 09:54:31;;;;;;;0.40;0.20;;;;;;;22.84;72.16;100495.75;5034617;28;20493;-51
2021/09/12 09:57:00;;;;;;;0.40;0.20;;;;;;;22.09;71.87;100496.81;5034573;28;20452;-51
2021/09/12 09:59:28;;;;;;;0.40;0.20;;;;;;;22.18;73.37;100492.53;5036598;28;20871;-52
2021/09/12 10:01:56;;;;;;;0.40;0.20;;;;;;;22.52;71.97;100487.34;5044783;28;20456;-52
2021/09/12 10:04:29;;;;;;;0.77;0.77;;;;;;;22.71;70.11;100493.94;5033751;28;20995;-52
2021/09/12 10:06:57;;;;;;;0.40;0.30;;;;;;;22.91;69.02;100494.31;5033545;28;20475;-52
2021/09/12 10:09:24;;;;;;;0.40;0.20;;;;;;;22.79;68.37;100484.38;5033843;28;20426;-53
2021/09/12 10:11:54;;;;;;;0.57;0.40;;;;;;;22.78;68.76;100488.94;5033992;28;20498;-51
2021/09/12 10:14:35;;;;;;;0.40;0.20;;;;;;;22.65;68.43;100490.84;5033702;28;20471;-52
2021/09/12 10:17:03;;;;;;;0.70;0.70;;;;;;;22.99;68.93;100483.72;5034097;28;20481;-52
2021/09/12 10:19:43;;;;;;;0.40;0.20;;;;;;;23.08;67.37;100479.47;5033970;28;20447;-52
2021/09/12 10:22:14;;;;;;;0.40;0.20;;;;;;;23.41;66.93;100487.66;5033712;28;20447;-52
2021/09/12 10:25:06;;;;;;;0.40;0.30;;;;;;;23.55;66.57;100476.56;5033494;28;20816;-51
2021/09/12 10:27:40;;;;;;;0.40;0.30;;;;;;;23.30;64.71;100474.97;5034101;28;20453;-52
2021/09/12 10:30:26;;;;;;;0.40;0.20;;;;;;;23.27;63.88;100474.31;5016145;28;20430;-52
2021/09/12 10:33:05;;;;;;;0.40;0.20;;;;;;;23.46;64.41;100468.31;5033724;28;20450;-52
2021/09/12 10:35:36;;;;;;;0.40;0.27;;;;;;;23.64;63.62;100467.72;5032610;28;20485;-52
2021/09/12 10:38:08;;;;;;;0.40;0.27;;;;;;;24.00;61.34;100470.31;5033496;28;20447;-52
2021/09/12 10:40:55;;;;;;;0.40;0.20;;;;;;;24.11;61.73;100465.72;5020258;28;20452;-52
2021/09/12 10:43:25;;;;;;;0.77;0.70;;;;;;;23.84;62.48;100454.38;5016842;28;20968;-54
2021/09/12 10:46:01;;;;;;;0.40;0.20;;;;;;;23.76;61.91;100462.31;5016157;28;20534;-53
2021/09/12 10:48:29;;;;;;;0.40;0.20;;;;;;;23.38;62.85;100460.78;5033331;28;20451;-52
2021/09/12 10:50:57;;;;;;;0.47;0.30;;;;;;;23.02;64.37;100456.38;5033220;28;20487;-54
2021/09/12 10:53:45;;;;;;;0.40;0.20;;;;;;;23.53;62.53;100455.97;5033145;28;20931;-52
2021/09/12 10:56:15;;;;;;;1.33;1.33;;;;;;;23.26;63.62;100457.16;5033422;28;20426;-52
2021/09/12 10:58:53;;;;;;;0.40;0.30;;;;;;;22.91;64.06;100449.09;5015809;28;20509;-52
2021/09/12 11:01:24;;;;;;;0.40;0.30;;;;;;;22.98;63.88;100457.59;5046421;28;20476;-53
2021/09/12 11:06:30;;;;;;;0.40;0.30;;;;;;;23.47;63.59;100448.34;4972793;28;20542;-55
2021/09/12 11:08:58;;;;;;;0.63;0.63;;;;;;;23.54;61.81;100436.84;4989170;28;20428;-56
2021/09/12 11:11:26;;;;;;;0.40;0.20;;;;;;;23.56;64.22;100434.88;4985632;28;20484;-55
2021/09/12 11:13:55;;;;;;;0.40;0.20;;;;;;;23.34;62.81;100434.88;4969658;28;21009;-55
2021/09/12 11:16:25;;;;;;;0.40;0.30;;;;;;;23.81;62.19;100439.22;4994132;28;20516;-55
2021/09/12 11:18:59;;;;;;;0.40;0.30;;;;;;;23.66;62.49;100436.88;4992794;28;20474;-55
2021/09/12 11:21:32;;;;;;;0.40;0.30;;;;;;;23.70;61.80;100433.78;4993566;28;20445;-56
2021/09/12 11:24:10;;;;;;;0.40;0.23;;;;;;;23.47;62.35;100437.47;4993678;28;20420;-55
2021/09/12 11:26:53;;;;;;;0.40;0.20;;;;;;;23.80;62.48;100429.34;4993433;28;20424;-55
2021/09/12 11:29:21;;;;;;;0.40;0.30;;;;;;;23.73;61.89;100428.13;4972802;28;20958;-55